createdAt,value
2022-11-25T00:00:31.821Z,98581.72
2022-11-25T00:03:23.485Z,98583.48
2022-11-25T00:05:55.369Z,98585.08
2022-11-25T00:08:26.942Z,98581.27
2022-11-25T00:11:01.365Z,98582.66
2022-11-25T00:13:33.855Z,98582.05
2022-11-25T00:16:07.278Z,98588.17
2022-11-25T00:18:39.902Z,98588.97
2022-11-25T00:21:14.710Z,98588.98
2022-11-25T00:23:51.437Z,98587.37
2022-11-25T00:26:24.360Z,98588.85
2022-11-25T00:28:58.608Z,98593.05
2022-11-25T00:31:32.018Z,98597.83
2022-11-25T00:34:04.160Z,98599.52
2022-11-25T00:36:37.505Z,98601.22
2022-11-25T00:39:11.504Z,98601.35
2022-11-25T00:42:00.641Z,98604.60
2022-11-25T00:44:40.665Z,98605.21
2022-11-25T00:47:14.736Z,98609.15
2022-11-25T00:49:47.849Z,98612.67
2022-11-25T00:52:20.993Z,98614.77
2022-11-25T00:54:53.199Z,98618.79
2022-11-25T00:57:25.566Z,98616.65
2022-11-25T00:59:57.204Z,98621.02
2022-11-25T01:02:28.949Z,98620.33
2022-11-25T01:05:00.582Z,98620.24
2022-11-25T01:07:32.245Z,98616.39
2022-11-25T01:10:03.732Z,98613.02
2022-11-25T01:12:35.255Z,98612.73
2022-11-25T01:15:08.301Z,98616.12
2022-11-25T01:17:39.755Z,98620.27
2022-11-25T01:20:13.460Z,98620.24
2022-11-25T01:22:44.904Z,98621.94
2022-11-25T01:25:16.555Z,98620.81
2022-11-25T01:27:48.040Z,98612.49
2022-11-25T01:30:19.850Z,98610.80
2022-11-25T01:32:51.387Z,98609.98
2022-11-25T01:35:22.921Z,98608.48
2022-11-25T01:37:54.466Z,98605.13
2022-11-25T01:40:25.997Z,98606.94
2022-11-25T01:42:57.509Z,98607.25
2022-11-25T01:45:40.198Z,98607.14
2022-11-25T01:48:17.864Z,98604.95
2022-11-25T01:50:50.688Z,98610.20
2022-11-25T01:53:23.239Z,98609.17
2022-11-25T01:55:59.725Z,98604.83
2022-11-25T01:58:35.481Z,98602.06
2022-11-25T02:01:07.605Z,98604.38
2022-11-25T02:03:43.065Z,98607.67
2022-11-25T02:06:19.981Z,98607.34
2022-11-25T02:08:56.312Z,98613.79
2022-11-25T02:11:30.945Z,98610.71
2022-11-25T02:14:03.828Z,98615.73
2022-11-25T02:16:35.384Z,98612.45
2022-11-25T02:19:13.156Z,98616.67
2022-11-25T02:21:51.385Z,98616.95
2022-11-25T02:24:29.873Z,98614.75
2022-11-25T02:27:01.634Z,98616.25
2022-11-25T02:29:33.810Z,98617.71
2022-11-25T02:32:05.690Z,98621.67
2022-11-25T02:34:37.338Z,98619.45
2022-11-25T02:37:09.307Z,98617.64
2022-11-25T02:39:41.111Z,98620.92
2022-11-25T02:42:13.212Z,98620.45
2022-11-25T02:44:44.673Z,98620.14
2022-11-25T02:47:16.259Z,98619.24
2022-11-25T02:49:47.765Z,98621.40
2022-11-25T02:52:19.292Z,98624.31
2022-11-25T02:54:50.825Z,98624.70
2022-11-25T02:57:22.663Z,98626.97
2022-11-25T02:59:54.162Z,98628.38
2022-11-25T03:02:25.758Z,98629.48
2022-11-25T03:04:57.289Z,98630.05
2022-11-25T03:07:29.074Z,98627.83
2022-11-25T03:10:00.645Z,98629.31
2022-11-25T03:12:32.563Z,98633.98
2022-11-25T03:15:04.364Z,98627.87
2022-11-25T03:17:35.901Z,98630.89
2022-11-25T03:20:09.407Z,98631.05
2022-11-25T03:22:41.090Z,98634.42
2022-11-25T03:25:14.191Z,98639.42
2022-11-25T03:27:45.984Z,98636.50
2022-11-25T03:30:20.142Z,98639.64
2022-11-25T03:32:52.168Z,98637.27
2022-11-25T03:35:24.459Z,98640.10
2022-11-25T03:37:56.473Z,98642.63
2022-11-25T03:40:28.181Z,98647.39
2022-11-25T03:42:59.664Z,98649.04
2022-11-25T03:45:31.205Z,98652.41
2022-11-25T03:48:02.965Z,98652.98
2022-11-25T03:50:34.569Z,98653.36
2022-11-25T03:53:06.092Z,98657.67
2022-11-25T03:55:37.638Z,98658.23
2022-11-25T03:58:09.521Z,98656.21
2022-11-25T04:00:42.629Z,98654.63
2022-11-25T04:03:14.372Z,98657.07
2022-11-25T04:05:46.172Z,98655.01
2022-11-25T04:08:17.664Z,98653.13
2022-11-25T04:10:49.837Z,98655.42
2022-11-25T04:13:21.379Z,98655.80
2022-11-25T04:15:53.390Z,98652.20
2022-11-25T04:18:24.880Z,98652.66
2022-11-25T04:20:56.504Z,98658.10
2022-11-25T04:23:28.007Z,98656.02
2022-11-25T04:25:59.528Z,98659.27
2022-11-25T04:28:31.075Z,98658.52
2022-11-25T04:31:06.367Z,98659.54
2022-11-25T04:33:37.998Z,98660.58
2022-11-25T04:36:10.848Z,98657.44
2022-11-25T04:38:42.487Z,98658.09
2022-11-25T04:41:14.582Z,98663.56
2022-11-25T04:43:46.252Z,98669.05
2022-11-25T04:46:20.853Z,98672.50
2022-11-25T04:48:52.753Z,98676.27
2022-11-25T04:51:24.280Z,98679.12
2022-11-25T04:53:55.776Z,98681.08
2022-11-25T04:56:27.609Z,98683.05
2022-11-25T04:59:17.188Z,98685.50
2022-11-25T05:01:48.770Z,98684.95
2022-11-25T05:04:20.451Z,98687.98
2022-11-25T05:06:52.307Z,98689.30
2022-11-25T05:09:23.877Z,98690.02
2022-11-25T05:11:55.399Z,98692.30
2022-11-25T05:14:27.109Z,98694.38
2022-11-25T05:16:58.756Z,98701.06
2022-11-25T05:19:30.587Z,98701.90
2022-11-25T05:22:02.071Z,98706.53
2022-11-25T05:24:33.883Z,98710.06
2022-11-25T05:27:05.843Z,98709.31
2022-11-25T05:29:37.606Z,98706.77
2022-11-25T05:32:11.373Z,98711.77
2022-11-25T05:34:43.496Z,98716.61
2022-11-25T05:37:18.790Z,98718.56
2022-11-25T05:39:54.621Z,98718.36
2022-11-25T05:42:26.124Z,98720.14
2022-11-25T05:44:57.910Z,98722.63
2022-11-25T05:47:29.641Z,98722.48
2022-11-25T05:50:01.148Z,98726.84
2022-11-25T05:52:33.140Z,98726.05
2022-11-25T05:55:04.856Z,98726.32
2022-11-25T05:57:36.633Z,98728.59
2022-11-25T06:00:10.652Z,98729.61
2022-11-25T06:02:42.271Z,98729.71
2022-11-25T06:05:13.914Z,98732.14
2022-11-25T06:07:45.812Z,98735.25
2022-11-25T06:10:17.253Z,98734.84
2022-11-25T06:12:48.755Z,98736.08
2022-11-25T06:15:20.336Z,98740.08
2022-11-25T06:17:51.851Z,98739.34
2022-11-25T06:20:23.457Z,98743.96
2022-11-25T06:22:55.309Z,98744.57
2022-11-25T06:25:27.338Z,98745.95
2022-11-25T06:28:12.384Z,98747.25
2022-11-25T06:30:44.736Z,98747.18
2022-11-25T06:33:16.425Z,98744.50
2022-11-25T06:35:47.947Z,98746.95
2022-11-25T06:38:19.447Z,98746.41
2022-11-25T06:40:51.802Z,98748.71
2022-11-25T06:43:24.895Z,98751.45
2022-11-25T06:45:56.483Z,98749.98
2022-11-25T06:48:28.575Z,98750.80
2022-11-25T06:51:01.780Z,98753.98
2022-11-25T06:53:34.814Z,98755.36
2022-11-25T06:56:10.399Z,98759.02
2022-11-25T06:58:42.853Z,98762.71
2022-11-25T07:01:17.206Z,98765.05
2022-11-25T07:03:50.787Z,98767.70
2022-11-25T07:06:22.877Z,98770.59
2022-11-25T07:08:54.686Z,98775.30
2022-11-25T07:11:27.758Z,98779.55
2022-11-25T07:14:01.979Z,98779.02
2022-11-25T07:16:34.462Z,98776.92
2022-11-25T07:19:06.252Z,98778.48
2022-11-25T07:21:37.817Z,98779.25
2022-11-25T07:24:11.336Z,98784.48
2022-11-25T07:26:44.569Z,98787.76
2022-11-25T07:29:49.945Z,98786.84
2022-11-25T07:32:10.940Z,98785.84
2022-11-25T07:34:42.940Z,98783.21
2022-11-25T07:37:14.874Z,98784.80
2022-11-25T07:39:46.973Z,98788.04
2022-11-25T07:42:18.541Z,98789.36
2022-11-25T07:44:51.066Z,98793.64
2022-11-25T07:47:26.123Z,98798.70
2022-11-25T07:49:57.848Z,98798.71
2022-11-25T07:52:29.483Z,98797.81
2022-11-25T07:55:01.017Z,98798.73
2022-11-25T07:57:32.985Z,98799.30
2022-11-25T08:00:06.053Z,98803.54
2022-11-25T08:02:37.752Z,98802.34
2022-11-25T08:05:12.970Z,98810.31
2022-11-25T08:07:44.549Z,98809.39
2022-11-25T08:10:16.526Z,98810.23
2022-11-25T08:12:48.509Z,98813.16
2022-11-25T08:15:20.419Z,98813.13
2022-11-25T08:17:52.764Z,98821.66
2022-11-25T08:20:24.243Z,98820.24
2022-11-25T08:22:56.353Z,98819.20
2022-11-25T08:25:29.694Z,98821.36
2022-11-25T08:28:02.824Z,98823.45
2022-11-25T08:30:34.555Z,98822.63
2022-11-25T08:33:07.433Z,98818.42
2022-11-25T08:35:39.122Z,98824.15
2022-11-25T08:38:12.578Z,98821.19
2022-11-25T08:40:46.875Z,98821.18
2022-11-25T08:43:22.784Z,98821.38
2022-11-25T08:45:56.624Z,98823.07
2022-11-25T08:48:28.137Z,98825.45
2022-11-25T08:50:59.893Z,98827.29
2022-11-25T08:53:31.574Z,98829.16
2022-11-25T08:56:03.123Z,98830.45
2022-11-25T08:58:34.971Z,98832.52
2022-11-25T09:01:07.570Z,98832.13
2022-11-25T09:03:42.168Z,98836.16
2022-11-25T09:06:14.673Z,98836.89
2022-11-25T09:08:47.066Z,98839.68
2022-11-25T09:11:18.830Z,98840.38
2022-11-25T09:13:50.534Z,98839.49
2022-11-25T09:16:22.255Z,98840.98
2022-11-25T09:18:56.071Z,98841.06
2022-11-25T09:21:28.427Z,98840.78
2022-11-25T09:23:59.916Z,98828.64
2022-11-25T09:26:36.662Z,98836.53
2022-11-25T09:29:08.355Z,98837.48
2022-11-25T09:31:40.367Z,98833.15
2022-11-25T09:34:11.952Z,98832.03
2022-11-25T09:36:45.002Z,98827.73
2022-11-25T09:39:16.587Z,98830.30
2022-11-25T09:42:17.640Z,98831.05
2022-11-25T09:45:21.431Z,98832.35
2022-11-25T09:48:02.126Z,98833.88
2022-11-25T09:50:49.699Z,98837.52
2022-11-25T09:53:36.753Z,98836.15
2022-11-25T09:56:17.371Z,98834.52
2022-11-25T09:58:52.918Z,98832.83
2022-11-25T10:01:29.319Z,98827.67
2022-11-25T10:04:06.793Z,98830.38
2022-11-25T10:06:50.709Z,98829.71
2022-11-25T10:09:29.235Z,98835.73
2022-11-25T10:12:05.923Z,98834.36
2022-11-25T10:14:46.047Z,98834.65
2022-11-25T10:17:29.290Z,98833.86
2022-11-25T10:20:04.645Z,98833.28
2022-11-25T10:22:40.234Z,98835.34
2022-11-25T10:25:18.206Z,98830.45
2022-11-25T10:27:56.447Z,98826.88
2022-11-25T10:30:33.713Z,98830.24
2022-11-25T10:33:14.855Z,98826.64
2022-11-25T10:35:51.932Z,98827.84
2022-11-25T10:38:28.403Z,98820.27
2022-11-25T10:41:00.039Z,98823.49
2022-11-25T10:43:32.652Z,98828.24
2022-11-25T10:46:15.971Z,98830.85
2022-11-25T10:48:58.681Z,98832.79
2022-11-25T10:51:44.583Z,98830.73
2022-11-25T10:54:26.914Z,98833.82
2022-11-25T10:57:01.508Z,98838.83
2022-11-25T10:59:32.842Z,98838.56
2022-11-25T11:02:22.280Z,98836.77
2022-11-25T11:05:02.797Z,98834.41
2022-11-25T11:07:38.247Z,98833.10
2022-11-25T11:10:22.780Z,98832.18
2022-11-25T11:12:59.034Z,98832.35
2022-11-25T11:15:32.257Z,98834.02
2022-11-25T11:18:24.177Z,98838.41
2022-11-25T11:20:57.249Z,98836.12
2022-11-25T11:23:30.337Z,98834.86
2022-11-25T11:26:04.918Z,98838.21
2022-11-25T11:28:42.796Z,98840.40
2022-11-25T11:31:25.080Z,98836.21
2022-11-25T11:34:04.477Z,98841.26
2022-11-25T11:36:53.517Z,98841.33
2022-11-25T11:39:38.219Z,98841.77
2022-11-25T11:42:21.828Z,98842.11
2022-11-25T11:45:06.295Z,98841.90
2022-11-25T11:47:48.551Z,98842.05
2022-11-25T11:50:31.512Z,98842.33
2022-11-25T11:53:11.787Z,98838.52
2022-11-25T11:56:19.292Z,98840.58
2022-11-25T11:59:04.841Z,98847.10
2022-11-25T12:01:49.692Z,98848.44
2022-11-25T12:04:27.143Z,98843.48
2022-11-25T12:07:06.261Z,98847.84
2022-11-25T12:09:44.534Z,98845.46
2022-11-25T12:12:20.243Z,98843.16
2022-11-25T12:14:58.398Z,98844.17
2022-11-25T12:17:35.688Z,98846.19
2022-11-25T12:20:16.844Z,98843.54
2022-11-25T12:22:55.418Z,98846.36
2022-11-25T12:25:30.961Z,98848.05
2022-11-25T12:28:09.051Z,98847.36
2022-11-25T12:30:50.541Z,98849.48
2022-11-25T12:33:27.012Z,98849.89
2022-11-25T12:36:05.904Z,98857.53
2022-11-25T12:38:43.915Z,98851.96
2022-11-25T12:41:25.484Z,98856.10
2022-11-25T12:44:04.813Z,98857.98
2022-11-25T12:46:42.245Z,98857.04
2022-11-25T12:49:20.665Z,98859.09
2022-11-25T12:52:18.911Z,98860.80
2022-11-25T12:55:10.620Z,98859.64
2022-11-25T12:58:06.472Z,98856.71
2022-11-25T13:00:51.550Z,98859.71
2022-11-25T13:03:47.085Z,98860.41
2022-11-25T13:06:42.309Z,98859.34
2022-11-25T13:09:29.087Z,98861.39
2022-11-25T13:12:23.820Z,98864.61
2022-11-25T13:15:16.456Z,98857.74
2022-11-25T13:17:50.926Z,98862.15
2022-11-25T13:20:45.791Z,98864.64
2022-11-25T13:23:29.421Z,98862.67
2022-11-25T13:26:42.892Z,98864.96
2022-11-25T13:30:04.069Z,98868.84
2022-11-25T13:32:46.143Z,98869.50
2022-11-25T13:35:47.928Z,98872.16
2022-11-25T13:38:59.156Z,98873.48
2022-11-25T13:41:42.730Z,98876.59
2022-11-25T13:44:23.614Z,98873.34
2022-11-25T13:46:56.481Z,98875.66
2022-11-25T13:49:32.353Z,98877.08
2022-11-25T13:52:17.835Z,98876.41
2022-11-25T13:54:54.706Z,98879.83
2022-11-25T13:57:31.671Z,98879.82
2022-11-25T14:00:07.639Z,98885.67
2022-11-25T14:02:46.064Z,98887.47
2022-11-25T14:05:55.945Z,98890.80
2022-11-25T14:08:38.695Z,98894.00
2022-11-25T14:11:49.382Z,98891.19
2022-11-25T14:14:37.267Z,98893.25
2022-11-25T14:17:28.056Z,98894.88
2022-11-25T14:20:15.090Z,98892.02
2022-11-25T14:23:31.957Z,98892.52
2022-11-25T14:26:21.011Z,98891.33
2022-11-25T14:29:05.437Z,98890.77
2022-11-25T14:31:45.549Z,98891.53
2022-11-25T14:34:22.301Z,98892.73
2022-11-25T14:37:00.648Z,98895.02
2022-11-25T14:39:37.952Z,98894.46
2022-11-25T14:42:11.856Z,98895.81
2022-11-25T14:44:46.527Z,98900.88
2022-11-25T14:47:22.439Z,98897.56
2022-11-25T14:50:18.737Z,98897.67
2022-11-25T14:52:48.593Z,98900.06
2022-11-25T14:55:30.994Z,98902.90
2022-11-25T14:58:02.677Z,98903.33
2022-11-25T15:00:34.253Z,98907.73
2022-11-25T15:03:07.933Z,98903.81
2022-11-25T15:05:41.035Z,98905.12
2022-11-25T15:08:17.584Z,98905.73
2022-11-25T15:10:54.356Z,98904.30
2022-11-25T15:13:35.423Z,98910.05
2022-11-25T15:16:13.623Z,98908.16
2022-11-25T15:18:51.421Z,98907.13
2022-11-25T15:21:28.994Z,98907.40
2022-11-25T15:24:01.191Z,98908.48
2022-11-25T15:26:34.479Z,98906.15
2022-11-25T15:29:11.994Z,98910.38
2022-11-25T15:31:43.764Z,98913.42
2022-11-25T15:34:18.906Z,98915.11
2022-11-25T15:39:42.776Z,98916.63
2022-11-25T15:42:20.465Z,98919.65
2022-11-25T15:44:59.204Z,98917.86
2022-11-25T15:47:33.164Z,98918.73
2022-11-25T15:50:08.273Z,98924.74
2022-11-25T15:52:42.282Z,98926.92
2022-11-25T15:55:33.847Z,98930.52
2022-11-25T15:58:14.043Z,98929.33
2022-11-25T16:01:03.552Z,98931.88
2022-11-25T16:03:36.130Z,98935.09
2022-11-25T16:06:24.479Z,98931.77
2022-11-25T16:08:58.377Z,98930.20
2022-11-25T16:11:33.617Z,98925.97
2022-11-25T16:14:19.855Z,98925.13
2022-11-25T16:16:52.420Z,98924.77
2022-11-25T16:19:35.157Z,98930.79
2022-11-25T16:22:15.426Z,98933.02
2022-11-25T16:24:57.275Z,98936.48
2022-11-25T16:27:32.548Z,98938.43
2022-11-25T16:30:21.053Z,98937.52
2022-11-25T16:32:52.612Z,98934.80
2022-11-25T16:35:24.808Z,98937.73
2022-11-25T16:38:00.034Z,98939.08
2022-11-25T16:40:31.689Z,98942.19
2022-11-25T16:43:03.486Z,98942.48
2022-11-25T16:45:35.240Z,98944.55
2022-11-25T16:48:17.188Z,98938.84
2022-11-25T16:50:49.657Z,98940.80
2022-11-25T16:53:21.338Z,98941.24
2022-11-25T16:55:52.923Z,98946.88
2022-11-25T16:58:26.382Z,98948.88
2022-11-25T17:00:58.941Z,98948.91
2022-11-25T17:03:30.830Z,98953.19
2022-11-25T17:06:02.556Z,98951.11
2022-11-25T17:08:34.412Z,98953.16
2022-11-25T17:11:06.242Z,98954.98
2022-11-25T17:13:43.508Z,98958.40
2022-11-25T17:16:20.185Z,98966.32
2022-11-25T17:18:53.490Z,98971.42
2022-11-25T17:21:27.970Z,98975.21
2022-11-25T17:24:03.695Z,98980.98
2022-11-25T17:26:39.326Z,98981.81
2022-11-25T17:29:15.639Z,98986.69
2022-11-25T17:31:50.290Z,98988.17
2022-11-25T17:34:24.089Z,98984.75
2022-11-25T17:36:55.918Z,98984.09
2022-11-25T17:39:27.768Z,98988.98
2022-11-25T17:42:02.385Z,98987.17
2022-11-25T17:44:35.467Z,98990.19
2022-11-25T17:47:14.400Z,98987.67
2022-11-25T17:49:46.942Z,98987.70
2022-11-25T17:52:18.751Z,98993.12
2022-11-25T17:54:50.467Z,98991.61
2022-11-25T17:57:25.633Z,98990.36
2022-11-25T17:59:59.838Z,98994.34
2022-11-25T18:02:33.318Z,98996.36
2022-11-25T18:05:11.470Z,98990.67
2022-11-25T18:07:44.796Z,98988.95
2022-11-25T18:10:16.645Z,98990.69
2022-11-25T18:12:51.002Z,98992.58
2022-11-25T18:15:25.275Z,98990.79
2022-11-25T18:18:01.194Z,98987.85
2022-11-25T18:20:34.304Z,98994.60
2022-11-25T18:23:09.517Z,98992.77
2022-11-25T18:25:42.207Z,98990.98
2022-11-25T18:28:20.553Z,98990.80
2022-11-25T18:30:54.358Z,98988.83
2022-11-25T18:33:26.081Z,98994.52
2022-11-25T18:35:57.729Z,99002.71
2022-11-25T18:38:29.468Z,99005.16
2022-11-25T18:41:04.269Z,99009.29
2022-11-25T18:43:37.647Z,99008.66
2022-11-25T18:46:09.738Z,99014.00
2022-11-25T18:48:42.901Z,99014.95
2022-11-25T18:51:15.839Z,99016.36
2022-11-25T18:53:47.461Z,99017.29
2022-11-25T18:56:19.189Z,99016.09
2022-11-25T18:58:53.511Z,99014.00
2022-11-25T19:01:25.815Z,99018.02
2022-11-25T19:03:57.839Z,99017.27
2022-11-25T19:06:29.403Z,99018.59
2022-11-25T19:09:01.081Z,99019.95
2022-11-25T19:11:37.407Z,99020.68
2022-11-25T19:14:13.211Z,99022.33
2022-11-25T19:16:45.377Z,99022.02
2022-11-25T19:19:18.691Z,99026.13
2022-11-25T19:21:50.198Z,99026.27
2022-11-25T19:24:22.833Z,99035.67
2022-11-25T19:26:57.107Z,99035.59
2022-11-25T19:29:38.804Z,99035.73
2022-11-25T19:32:20.968Z,99037.44
2022-11-25T19:34:58.150Z,99036.65
2022-11-25T19:37:30.787Z,99038.81
2022-11-25T19:40:02.826Z,99043.02
2022-11-25T19:42:34.362Z,99042.81
2022-11-25T19:45:06.933Z,99045.35
2022-11-25T19:47:39.361Z,99044.79
2022-11-25T19:50:18.593Z,99043.78
2022-11-25T19:52:50.867Z,99042.72
2022-11-25T19:55:24.775Z,99042.99
2022-11-25T19:57:57.601Z,99042.83
2022-11-25T20:00:29.116Z,99046.73
2022-11-25T20:03:00.802Z,99054.76
2022-11-25T20:05:36.065Z,99057.66
2022-11-25T20:08:11.597Z,99064.20
2022-11-25T20:10:43.058Z,99065.73
2022-11-25T20:13:15.049Z,99068.14
2022-11-25T20:15:47.728Z,99076.05
2022-11-25T20:18:21.615Z,99078.23
2022-11-25T20:20:59.423Z,99079.55
2022-11-25T20:23:38.776Z,99080.66
2022-11-25T20:26:16.330Z,99081.96
2022-11-25T20:28:48.683Z,99083.24
2022-11-25T20:31:20.249Z,99086.05
2022-11-25T20:33:51.779Z,99087.64
2022-11-25T20:36:29.290Z,99088.33
2022-11-25T20:39:02.214Z,99086.98
2022-11-25T20:41:34.490Z,99090.69
2022-11-25T20:44:06.373Z,99094.05
2022-11-25T20:46:38.902Z,99094.52
2022-11-25T20:49:23.368Z,99097.16
2022-11-25T20:51:55.659Z,99097.91
2022-11-25T20:54:27.492Z,99102.70
2022-11-25T20:57:00.700Z,99098.05
2022-11-25T20:59:32.283Z,99093.95
2022-11-25T21:02:03.878Z,99089.82
2022-11-25T21:04:35.671Z,99090.86
2022-11-25T21:07:08.165Z,99089.59
2022-11-25T21:09:39.795Z,99092.61
2022-11-25T21:12:19.255Z,99092.82
2022-11-25T21:14:51.425Z,99093.78
2022-11-25T21:17:22.920Z,99093.74
2022-11-25T21:19:54.372Z,99092.11
2022-11-25T21:22:25.957Z,99094.74
2022-11-25T21:24:57.496Z,99094.91
2022-11-25T21:27:29.269Z,99095.98
2022-11-25T21:30:01.026Z,99101.11
2022-11-25T21:32:32.661Z,99102.16
2022-11-25T21:35:05.553Z,99105.50
2022-11-25T21:37:37.989Z,99109.06
2022-11-25T21:40:25.265Z,99105.94
2022-11-25T21:42:56.914Z,99106.66
2022-11-25T21:45:28.567Z,99106.33
2022-11-25T21:48:00.311Z,99109.29
2022-11-25T21:50:32.433Z,99109.46
2022-11-25T21:53:03.937Z,99111.69
2022-11-25T21:55:35.496Z,99115.02
2022-11-25T21:58:13.175Z,99115.15
2022-11-25T22:00:45.433Z,99117.63
2022-11-25T22:03:20.341Z,99117.79
2022-11-25T22:05:52.573Z,99115.21
2022-11-25T22:08:24.613Z,99119.16
2022-11-25T22:10:57.267Z,99124.71
2022-11-25T22:13:36.057Z,99120.60
2022-11-25T22:16:08.920Z,99125.26
2022-11-25T22:18:41.048Z,99127.43
2022-11-25T22:21:15.516Z,99129.95
2022-11-25T22:23:47.065Z,99128.23
2022-11-25T22:26:23.035Z,99131.98
2022-11-25T22:28:55.631Z,99141.21
2022-11-25T22:31:28.074Z,99147.26
2022-11-25T22:33:59.697Z,99155.25
2022-11-25T22:36:36.582Z,99148.77
2022-11-25T22:39:17.371Z,99151.07
2022-11-25T22:41:52.436Z,99154.83
2022-11-25T22:44:35.986Z,99154.09
2022-11-25T22:47:07.236Z,99157.41
2022-11-25T22:49:44.189Z,99162.23
2022-11-25T22:52:20.468Z,99165.76
2022-11-25T22:54:52.428Z,99165.31
2022-11-25T22:57:24.054Z,99165.39
2022-11-25T22:59:55.549Z,99165.25
2022-11-25T23:02:37.057Z,99163.21
2022-11-25T23:05:18.821Z,99168.30
2022-11-25T23:07:50.402Z,99169.39
2022-11-25T23:10:25.816Z,99169.62
2022-11-25T23:12:57.747Z,99166.45
2022-11-25T23:15:30.240Z,99173.27
2022-11-25T23:18:03.567Z,99172.93
2022-11-25T23:20:37.304Z,99171.82
2022-11-25T23:23:15.920Z,99174.89
2022-11-25T23:25:48.343Z,99172.54
2022-11-25T23:28:20.088Z,99171.39
2022-11-25T23:30:54.603Z,99173.65
2022-11-25T23:33:31.257Z,99177.69
2022-11-25T23:36:06.265Z,99174.80
2022-11-25T23:38:45.420Z,99168.48
2022-11-25T23:41:20.616Z,99174.70
2022-11-25T23:43:52.493Z,99178.82
2022-11-25T23:46:28.205Z,99186.19
2022-11-25T23:49:03.240Z,99184.56
2022-11-25T23:51:35.615Z,99185.31
2022-11-25T23:54:07.292Z,99184.78
2022-11-25T23:56:39.343Z,99182.83
2022-11-25T23:59:15.808Z,99183.55
